Aérodrome :
LOGIN :

S'inscrire | Disclaimer

   EN    FR    IT 

 










Légende :    VFR   VFR Marginal   IFR   IFR Intensif   IFR Très Intensif
Visi : 
Plafond : 
>= 8 km
>= 3000ft
5 à 8 km
1000 à 3000 ft
1500m à 5 km
500 à 1000 ft
800 à 1500m
200 à 500 ft
< 800m
< 200 ft
Symboles :   Orages  Brouillard  Fortes neiges  Fortes précipitations  Vent > 20 kt
SIGMETs :   Divers  Orages  Givrage  Turbulence  Onde Orograph.  Cendres Volcan.






- Altitude de l'aérodrome : 788 ft
- Code IATA : DCM


LFCK - Castres-Mazamet

DERNIER METAR :
  • 231800Z AUTO 33009KT 9999 FEW037 SCT058 BKN076 18/11 Q1019 NOSIG

METARs EXPIRÉS :
  • 231730Z AUTO 31008KT 9999 BKN042 19/10 Q1019 NOSIG
  • 231700Z AUTO 28010KT 9999 SCT045 SCT092 19/09 Q1019 TEMPO SCT040TCU
  • 231630Z AUTO 28011KT 9999 SCT041 BKN056 BKN094 20/10 Q1019 TEMPO SCT040TCU
  • 231600Z AUTO 29009KT 260V320 9999 FEW044 SCT090 20/09 Q1019 BECMG SCT040TCU
  • 231530Z AUTO 31012KT 280V350 CAVOK 20/08 Q1019 BECMG SCT040TCU
  • 231500Z AUTO 30011KT 270V330 9999 SCT042 SCT048 20/09 Q1019 BECMG SCT040TCU
  • 231430Z AUTO 31010KT 280V350 9999 BKN041 BKN052 19/10 Q1019 BECMG SCT020TCU BKN060
  • 231400Z AUTO 29010KT 270V330 9999 FEW042 19/10 Q1019 BECMG SCT020TCU BKN060
  • 231330Z AUTO 30010KT 270V330 9999 FEW036 19/10 Q1019 BECMG SCT020TCU BKN060

TAF TAF LFCK
Valide du 23 à 18h jusqu'au 24 à 03h UTC


231700Z 2318/2403 31008KT 9999 SCT040



MET'MAP, la Météo Aéronautique d'un coup d'oeil ! - Copyright ORBIFLY Décembre 2007 - Disclaimer

ORBIFLY MET'MAP TEAM :

Programmation & Développement : Alexandra Zaïnal
Sur une idée originale de : Baudouin d'Aumeries
Soutien technique & logistique : Manuel Goepfert
Assistance : Marc-Olivier Méhu




SOURCES & CREDITS :

   NOAA